Time;durP1;ratioP1;P1;durP2;ratioP2;P2;SDS_P1;SDS_P2;PMS_P1;PMS_P2;Temp;Humidity;BMP_temperature;BMP_pressure;BME280_temperature;BME280_humidity;BME280_pressure;Samples;Min_cycle;Max_cycle;Signal;HPM_P1;HPM_P2
2022/06/17 00:00:46;;;;;;;3.50;3.20;;;;;;;12.05;47.33;102379.41;5012162;28;20048;-69
2022/06/17 00:03:11;;;;;;;6.32;3.53;;;;;;;12.13;47.23;102387.06;5011436;28;20128;-69
2022/06/17 00:05:37;;;;;;;4.97;3.75;;;;;;;12.32;46.93;102389.28;5013388;28;20099;-70
2022/06/17 00:08:03;;;;;;;3.47;2.70;;;;;;;12.39;46.49;102388.25;5012888;28;20699;-72
2022/06/17 00:10:28;;;;;;;5.47;3.95;;;;;;;12.35;46.44;102394.47;5014454;28;20048;-73
2022/06/17 00:12:54;;;;;;;7.50;3.92;;;;;;;12.24;46.74;102395.56;5012679;28;20065;-73
2022/06/17 00:15:20;;;;;;;3.70;3.38;;;;;;;12.35;46.90;102404.94;5014821;28;20037;-73
2022/06/17 00:17:52;;;;;;;5.22;3.63;;;;;;;12.37;46.73;102401.38;5012558;28;20056;-72
2022/06/17 00:20:21;;;;;;;5.75;3.40;;;;;;;12.24;46.49;102399.94;4998586;28;20078;-71
2022/06/17 00:22:47;;;;;;;6.47;3.47;;;;;;;12.00;47.26;102388.25;5010036;28;20103;-67
2022/06/17 00:25:28;;;;;;;6.18;4.43;;;;;;;11.81;47.76;102393.88;5026421;28;20970;-66
2022/06/17 00:27:54;;;;;;;4.60;3.58;;;;;;;11.70;48.05;102384.50;5009983;28;20041;-68
2022/06/17 00:30:25;;;;;;;6.35;4.40;;;;;;;11.65;48.63;102387.22;5012042;28;20044;-68
2022/06/17 00:32:56;;;;;;;4.57;4.10;;;;;;;11.63;48.89;102387.25;5015824;28;20156;-67
2022/06/17 00:35:24;;;;;;;7.78;4.80;;;;;;;11.67;48.61;102388.06;5029600;28;20407;-67
2022/06/17 00:37:49;;;;;;;7.20;4.15;;;;;;;11.78;48.43;102395.72;5030484;28;20078;-67
2022/06/17 00:40:20;;;;;;;5.38;4.82;;;;;;;11.96;47.73;102400.56;5032736;28;20044;-69
2022/06/17 00:42:47;;;;;;;6.40;3.73;;;;;;;11.95;47.78;102404.06;5030570;28;20482;-67
2022/06/17 00:45:31;;;;;;;5.43;3.63;;;;;;;11.97;47.62;102404.03;5031067;28;20539;-68
2022/06/17 00:48:01;;;;;;;5.35;4.32;;;;;;;11.89;48.06;102404.22;5031575;28;20098;-67
2022/06/17 00:50:35;;;;;;;4.30;3.78;;;;;;;11.87;47.88;102400.75;5032199;28;20785;-67
2022/06/17 00:53:14;;;;;;;5.80;4.40;;;;;;;12.02;47.86;102407.41;5028321;28;20048;-66
2022/06/17 00:55:52;;;;;;;5.03;4.13;;;;;;;12.06;47.74;102406.47;5031220;28;20084;-67
2022/06/17 00:58:25;;;;;;;9.25;5.28;;;;;;;12.07;47.39;102401.19;5030763;28;20066;-67
2022/06/17 01:00:57;;;;;;;5.72;3.92;;;;;;;11.95;47.30;102405.81;5029047;28;20033;-68
2022/06/17 01:03:33;;;;;;;8.13;6.00;;;;;;;11.71;47.86;102397.56;5030220;28;20090;-67
2022/06/17 01:06:07;;;;;;;8.02;4.75;;;;;;;11.52;48.59;102396.22;5029940;28;20093;-67
2022/06/17 01:11:28;;;;;;;6.15;4.40;;;;;;;11.44;48.81;102399.84;5031777;28;20078;-67
2022/06/17 01:13:54;;;;;;;5.90;4.43;;;;;;;11.39;48.82;102396.44;5010118;28;20037;-67
2022/06/17 01:16:25;;;;;;;5.65;4.88;;;;;;;11.52;48.59;102398.84;5039398;28;20040;-67
2022/06/17 01:19:01;;;;;;;8.00;5.40;;;;;;;11.34;49.02;102405.28;5029411;28;20214;-68
2022/06/17 01:21:42;;;;;;;7.93;5.10;;;;;;;11.43;49.09;102403.34;5032470;28;20040;-67
2022/06/17 01:24:09;;;;;;;5.07;4.57;;;;;;;11.49;48.71;102401.53;5045170;28;20053;-68
2022/06/17 01:26:34;;;;;;;5.97;4.00;;;;;;;11.50;48.54;102392.75;5029579;28;20037;-68
2022/06/17 01:29:00;;;;;;;7.00;4.70;;;;;;;11.44;48.93;102396.34;5030162;28;20568;-68
2022/06/17 01:31:26;;;;;;;11.65;5.47;;;;;;;11.34;49.19;102403.53;5030845;28;20049;-68
2022/06/17 01:33:51;;;;;;;6.95;4.28;;;;;;;11.29;49.13;102401.91;5024560;28;20047;-68
2022/06/17 01:36:27;;;;;;;7.47;5.80;;;;;;;11.21;49.23;102396.78;5010885;28;20025;-69
2022/06/17 01:38:55;;;;;;;7.53;5.35;;;;;;;11.11;49.53;102395.25;5022879;28;20037;-66
2022/06/17 01:41:25;;;;;;;5.55;4.88;;;;;;;11.06;49.59;102397.91;5032252;28;20078;-76
2022/06/17 01:43:56;;;;;;;7.38;4.95;;;;;;;10.96;49.68;102394.63;5030298;28;20508;-74
2022/06/17 01:46:42;;;;;;;5.50;4.85;;;;;;;11.03;49.83;102401.47;5034407;28;20536;-74
2022/06/17 01:49:21;;;;;;;5.85;5.22;;;;;;;10.99;49.76;102389.31;5015398;28;20445;-74
2022/06/17 01:51:54;;;;;;;7.10;4.00;;;;;;;10.94;49.97;102399.00;5011116;28;20053;-74
2022/06/17 01:54:30;;;;;;;8.40;5.30;;;;;;;10.90;50.03;102401.69;5048184;28;20044;-74
2022/06/17 01:57:00;;;;;;;6.43;5.40;;;;;;;10.88;50.43;102393.88;5031631;28;20136;-75
2022/06/17 01:59:51;;;;;;;5.65;5.05;;;;;;;10.78;50.11;102397.50;5032818;28;20540;-74
2022/06/17 02:02:18;;;;;;;;;;;;;;;10.73;50.38;102394.13;5032277;28;20064;-74
2022/06/17 02:04:51;;;;;;;9.27;5.57;;;;;;;10.66;50.34;102392.47;5015968;28;20453;-75
2022/06/17 02:07:24;;;;;;;7.75;5.15;;;;;;;10.66;50.65;102389.84;5022940;28;20025;-74
2022/06/17 02:09:52;;;;;;;6.70;5.30;;;;;;;10.60;50.66;102396.91;5013876;28;20064;-75
2022/06/17 02:12:20;;;;;;;6.97;6.00;;;;;;;10.53;50.74;102395.28;5016124;28;20133;-75
2022/06/17 02:14:54;;;;;;;6.45;5.55;;;;;;;10.52;50.68;102400.53;5017480;28;20064;-74
2022/06/17 02:17:43;;;;;;;7.80;6.15;;;;;;;10.50;50.83;102390.09;5000671;28;20283;-74
2022/06/17 02:20:25;;;;;;;9.05;6.28;;;;;;;10.47;50.92;102403.22;5002673;28;20307;-73
2022/06/17 02:22:51;;;;;;;9.45;6.30;;;;;;;10.41;51.03;102395.47;5012891;28;20065;-66
2022/06/17 02:25:20;;;;;;;10.27;7.00;;;;;;;10.40;51.11;102393.75;5014497;28;20033;-65
2022/06/17 02:27:50;;;;;;;12.77;7.28;;;;;;;10.39;51.15;102394.63;5014522;28;20073;-66
2022/06/17 02:30:17;;;;;;;12.20;7.22;;;;;;;10.39;50.99;102389.41;5013655;28;20217;-66
2022/06/17 02:32:44;;;;;;;9.98;7.43;;;;;;;10.38;51.13;102392.91;5011454;28;20510;-66
2022/06/17 02:35:45;;;;;;;12.25;7.15;;;;;;;10.35;50.99;102388.59;5013485;28;20134;-65
2022/06/17 02:38:15;;;;;;;12.27;7.55;;;;;;;10.36;51.02;102390.31;4974514;28;20053;-74
2022/06/17 02:40:43;;;;;;;9.52;7.20;;;;;;;10.37;51.07;102385.94;4991711;28;20045;-73
2022/06/17 02:43:17;;;;;;;8.75;6.90;;;;;;;10.47;50.81;102384.94;5014536;28;20049;-74
2022/06/17 02:45:46;;;;;;;12.13;7.75;;;;;;;10.48;50.91;102389.28;5008153;28;20033;-74
2022/06/17 02:48:27;;;;;;;10.32;7.60;;;;;;;10.57;50.60;102383.03;5023863;28;20126;-74
2022/06/17 02:50:56;;;;;;;10.20;7.23;;;;;;;10.71;50.65;102385.44;5033061;28;20025;-75
2022/06/17 02:53:33;;;;;;;8.05;6.72;;;;;;;10.83;50.22;102382.63;5015429;28;20140;-68
2022/06/17 02:56:03;;;;;;;10.07;7.32;;;;;;;10.82;50.09;102380.91;5030214;28;20111;-66
2022/06/17 02:58:45;;;;;;;11.23;7.30;;;;;;;10.84;49.86;102387.84;5027252;28;20060;-73
2022/06/17 03:01:20;;;;;;;10.93;7.88;;;;;;;10.88;49.69;102391.25;5019952;28;20041;-72
2022/06/17 03:03:55;;;;;;;12.05;7.80;;;;;;;10.80;49.62;102383.53;5031569;28;20053;-67
2022/06/17 03:06:36;;;;;;;11.27;8.15;;;;;;;10.73;49.42;102384.53;5012794;28;20037;-69
2022/06/17 03:09:17;;;;;;;12.30;7.68;;;;;;;10.88;49.63;102382.56;5005493;28;20432;-69
2022/06/17 03:11:45;;;;;;;8.82;6.78;;;;;;;10.93;49.53;102376.38;5027291;28;20132;-67
2022/06/17 03:14:12;;;;;;;9.82;7.10;;;;;;;11.00;49.20;102372.75;5011978;28;20171;-66
2022/06/17 03:16:41;;;;;;;12.20;8.27;;;;;;;11.11;49.00;102375.16;5012860;28;20029;-67
2022/06/17 03:19:07;;;;;;;10.77;7.95;;;;;;;11.14;49.19;102369.00;5010369;28;20036;-67
2022/06/17 03:21:35;;;;;;;11.38;7.25;;;;;;;11.19;48.95;102372.41;5014285;28;20045;-66
2022/06/17 03:24:20;;;;;;;10.77;7.93;;;;;;;11.23;49.24;102371.44;5015845;28;20057;-67
2022/06/17 03:26:54;;;;;;;11.00;8.50;;;;;;;11.29;48.77;102366.13;5012651;28;20111;-66
2022/06/17 03:29:23;;;;;;;8.82;7.18;;;;;;;11.25;48.82;102377.53;5028593;28;20111;-67
2022/06/17 03:31:59;;;;;;;9.27;6.80;;;;;;;11.24;49.09;102381.00;4995731;28;20045;-66
2022/06/17 03:34:33;;;;;;;14.82;7.60;;;;;;;11.28;49.16;102385.31;5012496;28;20048;-67
2022/06/17 03:37:24;;;;;;;12.43;8.73;;;;;;;11.30;48.85;102385.28;5012426;28;20132;-67
2022/06/17 03:39:56;;;;;;;9.52;6.47;;;;;;;11.30;49.00;102380.91;5009706;28;20558;-69
2022/06/17 03:42:33;;;;;;;10.13;7.25;;;;;;;11.38;48.94;102384.25;4995455;28;20049;-67
2022/06/17 03:45:05;;;;;;;9.73;7.63;;;;;;;11.44;48.82;102384.13;4986929;28;20070;-68
2022/06/17 03:47:49;;;;;;;;;;;;;;;11.46;48.32;102392.84;5028262;28;20720;-67
2022/06/17 03:50:26;;;;;;;12.02;8.02;;;;;;;11.41;48.14;102389.41;5012209;28;20342;-69
2022/06/17 03:52:58;;;;;;;13.48;7.80;;;;;;;11.56;48.21;102382.16;5009840;28;20053;-68
2022/06/17 03:55:25;;;;;;;9.93;7.03;;;;;;;11.56;48.43;102390.03;5013822;28;20521;-76
2022/06/17 03:57:54;;;;;;;10.25;6.65;;;;;;;11.62;48.42;102385.53;4998261;28;20518;-63
2022/06/17 04:00:40;;;;;;;8.80;6.97;;;;;;;11.72;47.91;102383.56;5014433;28;20037;-63
2022/06/17 04:03:13;;;;;;;9.20;6.05;;;;;;;11.77;48.07;102381.75;5017487;28;20037;-78
2022/06/17 04:05:42;;;;;;;9.13;5.88;;;;;;;11.88;48.21;102385.00;5018827;28;20045;-78
2022/06/17 04:08:10;;;;;;;9.63;7.10;;;;;;;12.08;47.59;102387.19;5022448;28;20045;-77
2022/06/17 04:10:37;;;;;;;7.22;6.13;;;;;;;12.18;47.55;102385.22;5013654;28;20029;-70
2022/06/17 04:13:03;;;;;;;6.80;5.88;;;;;;;12.28;47.28;102384.09;5010661;28;20049;-67
2022/06/17 04:15:59;;;;;;;9.68;6.20;;;;;;;12.44;46.96;102381.13;5005488;28;20688;-67
2022/06/17 04:18:25;;;;;;;6.38;4.75;;;;;;;12.55;46.96;102378.25;5011719;28;20043;-71
2022/06/17 04:20:54;;;;;;;8.63;6.05;;;;;;;12.64;46.68;102376.25;5011039;28;20033;-70
2022/06/17 04:23:25;;;;;;;7.53;6.28;;;;;;;12.69;46.49;102379.69;5025525;28;20422;-67
2022/06/17 04:26:29;;;;;;;8.48;5.07;;;;;;;12.82;46.43;102379.34;5011111;28;20368;-66
2022/06/17 04:29:01;;;;;;;11.63;5.18;;;;;;;12.94;46.34;102373.81;5010188;28;20128;-73
2022/06/17 04:31:32;;;;;;;8.35;5.82;;;;;;;13.04;45.53;102372.63;5014401;28;20124;-72
2022/06/17 04:34:10;;;;;;;7.53;5.72;;;;;;;13.17;45.36;102374.94;5011403;28;20045;-72
2022/06/17 04:36:51;;;;;;;10.13;5.97;;;;;;;13.37;44.92;102380.50;5014144;28;20072;-71
2022/06/17 04:42:19;;;;;;;8.77;5.93;;;;;;;13.63;43.73;102386.81;4965733;28;20051;-82
2022/06/17 04:44:45;;;;;;;7.53;5.65;;;;;;;13.52;43.69;102387.09;4953943;28;20034;-79
2022/06/17 04:47:16;;;;;;;7.18;4.85;;;;;;;13.48;43.97;102386.31;4984050;28;20053;-81
2022/06/17 04:49:52;;;;;;;10.13;6.45;;;;;;;13.40;43.96;102382.19;4987366;28;20034;-82
2022/06/17 04:52:24;;;;;;;6.78;5.55;;;;;;;13.50;43.77;102392.38;4978020;28;20073;-81
2022/06/17 04:54:54;;;;;;;7.57;6.05;;;;;;;13.53;43.68;102389.66;4984115;28;20121;-79
2022/06/17 04:57:38;;;;;;;7.80;5.65;;;;;;;13.66;43.19;102384.09;4981230;28;20051;-82
2022/06/17 05:00:19;;;;;;;7.45;6.30;;;;;;;13.51;43.41;102383.59;4946170;28;20046;-81
2022/06/17 05:02:46;;;;;;;8.30;5.57;;;;;;;13.82;43.38;102377.47;4976661;28;20046;-82
2022/06/17 05:05:39;;;;;;;8.75;4.68;;;;;;;14.70;43.06;102386.13;4965993;28;20169;-82
2022/06/17 05:08:13;;;;;;;7.63;5.25;;;;;;;16.44;40.21;102365.66;4968099;28;20041;-82
2022/06/17 05:10:47;;;;;;;7.88;5.78;;;;;;;18.85;34.62;102368.66;4962614;28;20809;-83
2022/06/17 05:13:28;;;;;;;11.70;5.70;;;;;;;21.26;30.93;102366.63;4950142;28;20636;-79
2022/06/17 05:15:57;;;;;;;9.25;4.80;;;;;;;22.43;29.71;102370.66;4948444;28;20088;-82
2022/06/17 05:18:22;;;;;;;9.32;4.72;;;;;;;23.55;27.64;102362.88;4956369;28;20055;-85
2022/06/17 05:20:58;;;;;;;6.53;3.90;;;;;;;23.94;26.93;102357.44;4968589;28;20061;-82
2022/06/17 05:23:24;;;;;;;5.43;4.53;;;;;;;23.37;27.51;102361.53;4951444;28;20037;-81
2022/06/17 05:25:50;;;;;;;6.78;4.80;;;;;;;21.09;29.54;102352.56;4953136;28;20035;-78
2022/06/17 05:28:19;;;;;;;6.10;4.40;;;;;;;20.18;30.81;102358.88;4953535;28;20050;-82
2022/06/17 05:30:51;;;;;;;6.72;4.90;;;;;;;19.13;32.99;102361.09;4967290;28;20117;-83
2022/06/17 05:33:19;;;;;;;10.15;5.15;;;;;;;18.32;35.41;102369.59;4969036;28;20134;-82
2022/06/17 05:35:44;;;;;;;6.97;4.40;;;;;;;18.19;36.04;102373.78;4968140;28;20048;-81
2022/06/17 05:38:11;;;;;;;9.57;6.32;;;;;;;17.64;36.62;102359.53;4956387;28;20070;-83
2022/06/17 05:40:38;;;;;;;7.70;6.00;;;;;;;17.52;37.77;102357.50;4955369;28;20122;-83
2022/06/17 05:43:04;;;;;;;4.80;3.67;;;;;;;17.60;37.69;102365.03;4981698;28;20102;-84
2022/06/17 05:45:31;;;;;;;6.38;5.18;;;;;;;17.63;38.05;102370.22;4969360;28;20365;-84
2022/06/17 05:48:03;;;;;;;9.60;4.82;;;;;;;17.21;38.96;102364.13;4969388;28;20043;-80
2022/06/17 05:50:48;;;;;;;8.05;5.68;;;;;;;17.43;38.86;102368.44;4968910;28;20483;-85
2022/06/17 05:53:38;;;;;;;7.35;4.85;;;;;;;17.52;37.88;102373.34;4976150;28;20416;-82
2022/06/17 05:56:23;;;;;;;9.93;6.57;;;;;;;17.26;38.55;102376.28;4954172;28;20046;-83
2022/06/17 05:58:51;;;;;;;8.35;5.38;;;;;;;17.70;38.06;102368.16;4950441;28;20121;-81
2022/06/17 06:01:16;;;;;;;8.13;5.10;;;;;;;17.77;38.17;102359.00;4953151;28;20290;-82
2022/06/17 06:03:42;;;;;;;8.02;5.70;;;;;;;17.73;37.06;102355.63;4963245;28;20070;-79
2022/06/17 06:06:08;;;;;;;10.38;6.68;;;;;;;17.70;37.27;102350.47;4965476;28;20035;-81
2022/06/17 06:08:33;;;;;;;14.35;6.10;;;;;;;17.67;37.45;102347.13;4969301;28;20046;-82
2022/06/17 06:11:03;;;;;;;10.32;6.53;;;;;;;18.04;37.10;102360.31;4946429;28;20035;-79
2022/06/17 06:13:28;;;;;;;16.40;5.85;;;;;;;18.50;36.79;102359.00;4963870;28;20046;-79
2022/06/17 06:15:55;;;;;;;5.78;4.75;;;;;;;18.69;36.45;102363.28;4965269;28;20038;-81
2022/06/17 06:18:35;;;;;;;6.35;5.20;;;;;;;18.87;35.88;102360.63;4968378;28;20047;-81
2022/06/17 06:21:07;;;;;;;9.75;4.65;;;;;;;18.79;35.43;102362.84;4965305;28;20035;-82
2022/06/17 06:23:38;;;;;;;8.93;4.68;;;;;;;18.83;35.50;102375.84;4966084;28;20039;-81
2022/06/17 06:26:07;;;;;;;11.20;4.75;;;;;;;18.13;36.36;102364.28;4949826;28;20149;-78
2022/06/17 06:28:34;;;;;;;5.30;4.60;;;;;;;18.29;36.15;102369.72;4957368;28;20098;-81
2022/06/17 06:31:28;;;;;;;8.27;4.30;;;;;;;18.42;35.62;102373.47;4953916;28;20034;-81
2022/06/17 06:33:54;;;;;;;7.85;4.70;;;;;;;18.48;36.15;102361.75;4969625;28;20049;-80
2022/06/17 06:36:22;;;;;;;8.32;5.05;;;;;;;18.26;36.43;102375.19;4972806;28;20688;-79
2022/06/17 06:38:48;;;;;;;8.93;4.25;;;;;;;18.09;36.66;102372.44;4952189;28;20039;-81
2022/06/17 06:41:15;;;;;;;4.70;3.97;;;;;;;17.98;36.60;102373.84;4963857;28;20050;-81
2022/06/17 06:43:41;;;;;;;7.95;3.70;;;;;;;18.05;37.66;102377.91;4959388;28;20102;-80
2022/06/17 06:46:35;;;;;;;8.65;4.53;;;;;;;18.09;37.12;102372.44;4970644;28;20038;-83
2022/06/17 06:49:02;;;;;;;5.18;3.42;;;;;;;18.08;37.24;102368.09;4964926;28;20066;-83
2022/06/17 06:51:31;;;;;;;5.03;3.17;;;;;;;18.11;37.34;102374.09;4951883;28;20043;-80
2022/06/17 06:53:56;;;;;;;5.72;3.33;;;;;;;18.16;37.20;102371.22;4951752;28;20074;-84
2022/06/17 06:56:22;;;;;;;5.40;4.03;;;;;;;18.11;37.20;102378.53;4971440;28;20038;-84
2022/06/17 06:58:49;;;;;;;4.57;3.08;;;;;;;18.18;37.87;102374.66;4971446;28;20055;-80
2022/06/17 07:01:15;;;;;;;7.68;4.18;;;;;;;18.26;38.62;102375.19;4960229;28;20034;-82
2022/06/17 07:03:40;;;;;;;11.02;4.90;;;;;;;18.11;38.58;102370.59;4953189;28;20069;-81
2022/06/17 07:06:06;;;;;;;7.30;4.20;;;;;;;18.22;38.05;102368.31;4970167;28;20030;-82
2022/06/17 07:08:34;;;;;;;10.63;3.95;;;;;;;18.21;38.10;102366.63;4972622;28;20053;-84
2022/06/17 07:11:00;;;;;;;8.07;3.25;;;;;;;18.24;37.97;102369.94;4971572;28;20034;-79
2022/06/17 07:13:28;;;;;;;7.45;4.63;;;;;;;18.20;37.87;102370.19;4965017;28;20054;-82
2022/06/17 07:15:54;;;;;;;5.45;2.75;;;;;;;18.40;38.46;102370.03;4967320;28;20233;-81
2022/06/17 07:18:26;;;;;;;5.70;4.32;;;;;;;18.30;37.56;102370.59;4953785;28;20050;-83
2022/06/17 07:20:55;;;;;;;5.03;2.95;;;;;;;17.97;37.98;102374.75;4949959;28;20046;-80
2022/06/17 07:23:29;;;;;;;4.43;3.35;;;;;;;18.36;37.39;102371.13;4968965;28;20047;-80
2022/06/17 07:25:57;;;;;;;10.40;3.47;;;;;;;18.43;37.01;102367.25;4969135;28;20035;-80
2022/06/17 07:28:25;;;;;;;5.00;3.20;;;;;;;18.85;36.40;102367.78;4988012;28;20031;-82
2022/06/17 07:30:53;;;;;;;6.30;3.15;;;;;;;18.69;36.10;102362.44;4987408;28;20043;-83
2022/06/17 07:33:20;;;;;;;8.85;3.95;;;;;;;18.75;36.33;102372.72;4959835;28;20042;-83
2022/06/17 07:35:47;;;;;;;7.68;4.05;;;;;;;18.99;36.28;102359.16;4979122;28;20092;-84
2022/06/17 07:41:04;;;;;;;3.17;2.55;;;;;;;19.73;36.00;102358.72;4971291;28;20030;-86
2022/06/17 07:43:30;;;;;;;8.30;4.60;;;;;;;20.08;35.79;102362.06;4984788;28;20038;-80
2022/06/17 07:45:56;;;;;;;5.60;2.92;;;;;;;20.06;35.66;102357.75;4971935;28;20606;-80
2022/06/17 07:48:22;;;;;;;3.65;3.30;;;;;;;20.05;34.27;102356.91;4969638;28;20213;-80
2022/06/17 07:50:48;;;;;;;3.78;3.05;;;;;;;19.50;35.43;102349.34;4984774;28;20066;-84
2022/06/17 07:53:14;;;;;;;6.43;4.55;;;;;;;20.00;33.95;102351.00;4972860;28;20050;-83
2022/06/17 07:55:41;;;;;;;5.75;3.55;;;;;;;19.94;34.12;102348.69;4971455;28;20131;-83
2022/06/17 07:58:08;;;;;;;6.65;3.40;;;;;;;20.10;34.12;102343.38;4950440;28;20047;-83
2022/06/17 08:00:38;;;;;;;5.50;2.78;;;;;;;19.05;34.74;102342.94;4964734;28;20195;-84
2022/06/17 08:03:04;;;;;;;5.15;2.90;;;;;;;19.66;34.15;102338.81;4965679;28;20097;-85
2022/06/17 08:05:31;;;;;;;6.05;2.75;;;;;;;20.16;33.77;102339.50;4959320;28;20156;-81
2022/06/17 08:07:58;;;;;;;15.50;7.68;;;;;;;20.39;33.66;102341.69;4955657;28;20046;-82
2022/06/17 08:10:28;;;;;;;4.10;3.35;;;;;;;20.47;33.72;102331.47;4963764;28;20034;-80
2022/06/17 08:12:53;;;;;;;3.80;2.78;;;;;;;20.45;32.86;102336.03;4979989;28;20464;-81
2022/06/17 08:15:20;;;;;;;8.38;2.97;;;;;;;20.54;33.29;102332.81;4954521;28;20134;-83
2022/06/17 08:17:46;;;;;;;2.92;2.33;;;;;;;19.43;33.53;102332.91;4965707;28;20053;-84
2022/06/17 08:20:36;;;;;;;4.55;3.03;;;;;;;20.31;32.81;102322.72;4965407;28;20344;-83
2022/06/17 08:23:03;;;;;;;6.03;2.50;;;;;;;20.85;32.58;102331.00;4965339;28;20577;-81
2022/06/17 08:25:30;;;;;;;4.95;2.78;;;;;;;20.96;32.74;102321.53;4965764;28;20039;-85
2022/06/17 08:27:58;;;;;;;4.55;2.70;;;;;;;21.49;31.41;102325.28;4964766;28;20046;-83
2022/06/17 08:30:26;;;;;;;3.97;2.53;;;;;;;21.62;31.19;102328.88;4967289;28;20542;-81
2022/06/17 08:32:53;;;;;;;3.88;2.50;;;;;;;21.47;31.01;102327.19;4955098;28;20094;-80
2022/06/17 08:35:26;;;;;;;6.53;2.33;;;;;;;20.51;33.29;102330.38;4958740;28;20045;-84
2022/06/17 08:37:55;;;;;;;10.13;2.92;;;;;;;20.65;33.03;102326.03;4948453;28;20046;-82
2022/06/17 08:40:36;;;;;;;6.80;3.63;;;;;;;20.50;32.54;102330.44;4963796;28;20049;-82
2022/06/17 08:43:33;;;;;;;9.37;2.60;;;;;;;21.06;32.67;102331.47;4971185;28;20519;-82
2022/06/17 08:46:37;;;;;;;4.47;2.85;;;;;;;20.42;32.83;102328.25;4959593;28;20443;-82
2022/06/17 08:49:12;;;;;;;5.70;2.38;;;;;;;20.88;33.07;102328.16;4957177;28;20057;-83
2022/06/17 08:52:14;;;;;;;3.88;2.45;;;;;;;20.98;32.07;102319.66;4960084;28;20101;-79
2022/06/17 08:55:02;;;;;;;4.45;2.58;;;;;;;21.02;32.19;102319.34;4976193;28;20141;-82
2022/06/17 08:57:34;;;;;;;3.78;2.10;;;;;;;21.23;31.48;102305.66;4945808;28;20047;-83
2022/06/17 09:00:12;;;;;;;7.15;3.05;;;;;;;20.88;32.01;102304.25;4958263;28;20500;-82
2022/06/17 09:03:11;;;;;;;3.35;2.42;;;;;;;21.63;31.54;102303.16;4979198;28;20586;-82
2022/06/17 09:05:45;;;;;;;3.80;2.67;;;;;;;21.44;30.92;102303.44;4958286;28;20125;-81
2022/06/17 09:08:23;;;;;;;8.77;2.63;;;;;;;22.46;30.58;102287.84;4948580;28;20053;-83
2022/06/17 09:11:25;;;;;;;7.63;2.83;;;;;;;22.20;29.76;102286.94;4968630;28;20124;-84
2022/06/17 09:13:57;;;;;;;7.22;3.70;;;;;;;21.54;30.71;102294.81;4979131;28;20050;-81
2022/06/17 09:16:22;;;;;;;;;;;;;;;21.27;31.50;102288.56;4966900;28;20070;-84
2022/06/17 09:18:55;;;;;;;4.05;2.08;;;;;;;22.30;30.46;102285.38;4977999;28;19961;-83
2022/06/17 09:21:30;;;;;;;4.70;2.80;;;;;;;22.76;29.54;102284.91;4967154;28;20031;-80
2022/06/17 09:24:04;;;;;;;4.82;2.53;;;;;;;23.29;29.56;102284.72;4963816;28;20127;-83
2022/06/17 09:26:38;;;;;;;4.53;1.95;;;;;;;23.26;29.86;102284.91;4966877;28;20063;-82
2022/06/17 09:29:29;;;;;;;9.40;2.80;;;;;;;22.75;30.18;102285.00;4956921;28;20181;-83
2022/06/17 09:32:04;;;;;;;4.05;1.98;;;;;;;22.36;30.50;102284.09;4962504;28;20042;-83
2022/06/17 09:34:36;;;;;;;5.03;2.55;;;;;;;21.88;30.82;102294.41;4964839;28;20053;-80
2022/06/17 09:37:11;;;;;;;4.45;2.38;;;;;;;22.11;29.92;102291.09;4962841;28;20045;-82
2022/06/17 09:39:43;;;;;;;5.28;2.90;;;;;;;21.04;31.65;102287.34;4947744;28;20038;-85
2022/06/17 09:42:15;;;;;;;6.72;2.50;;;;;;;22.30;29.79;102290.72;4958807;28;20077;-84
2022/06/17 09:44:46;;;;;;;4.07;2.15;;;;;;;23.02;30.10;102284.88;4947379;28;20193;-81
2022/06/17 09:47:24;;;;;;;2.30;1.92;;;;;;;23.70;28.21;102283.53;4979658;28;20064;-83
2022/06/17 09:50:03;;;;;;;3.72;2.38;;;;;;;24.61;27.35;102271.31;4964158;28;20599;-77
2022/06/17 09:52:37;;;;;;;6.55;2.75;;;;;;;24.26;27.09;102268.66;4965247;28;20523;-82
2022/06/17 09:55:15;;;;;;;4.40;2.08;;;;;;;25.26;27.18;102257.22;4965898;28;20506;-84
2022/06/17 09:57:47;;;;;;;5.93;2.58;;;;;;;25.42;25.93;102262.16;4968359;28;20046;-82
2022/06/17 10:00:19;;;;;;;5.40;2.58;;;;;;;25.17;26.25;102259.75;4978641;28;20035;-81
2022/06/17 10:03:14;;;;;;;5.13;2.58;;;;;;;25.94;26.55;102256.13;4980847;28;20055;-83
2022/06/17 10:05:50;;;;;;;4.15;2.15;;;;;;;25.91;25.97;102251.88;4969690;28;20178;-82
2022/06/17 10:08:49;;;;;;;3.45;2.05;;;;;;;24.94;26.01;102257.09;4982154;28;20047;-85
2022/06/17 10:11:32;;;;;;;3.88;1.85;;;;;;;26.45;24.77;102250.84;4965771;28;20046;-85
2022/06/17 10:14:22;;;;;;;6.90;2.22;;;;;;;25.30;25.89;102259.63;4964457;28;20054;-82
2022/06/17 10:19:59;;;;;;;6.03;2.35;;;;;;;25.55;25.17;102253.13;4963560;28;20507;-81
2022/06/17 10:22:57;;;;;;;4.43;1.95;;;;;;;25.83;25.74;102252.53;4946137;28;20324;-83
2022/06/17 10:25:31;;;;;;;6.15;2.30;;;;;;;26.67;25.82;102257.88;4961953;28;20043;-82
2022/06/17 10:28:13;;;;;;;5.13;2.30;;;;;;;26.68;25.19;102256.88;4963797;28;20054;-82
2022/06/17 10:30:58;;;;;;;12.13;1.90;;;;;;;27.49;23.42;102248.78;4969375;28;20500;-84
2022/06/17 10:33:25;;;;;;;5.43;2.22;;;;;;;26.77;24.40;102251.72;4949173;28;20074;-79
2022/06/17 10:35:51;;;;;;;6.55;2.60;;;;;;;26.07;23.96;102259.50;4969959;28;20522;-83
2022/06/17 10:38:26;;;;;;;9.10;3.90;;;;;;;26.02;24.69;102259.00;4954198;28;20043;-82
2022/06/17 10:40:51;;;;;;;5.93;2.85;;;;;;;24.64;26.22;102258.56;4953448;28;20043;-81
2022/06/17 10:43:24;;;;;;;3.30;2.60;;;;;;;24.77;27.15;102258.47;4968495;28;20049;-83
2022/06/17 10:45:51;;;;;;;6.72;2.65;;;;;;;24.56;26.42;102252.97;4971993;28;20061;-80
2022/06/17 10:48:28;;;;;;;3.58;1.70;;;;;;;25.16;27.86;102268.78;4985882;28;20479;-82
2022/06/17 10:50:54;;;;;;;3.60;2.55;;;;;;;24.74;25.91;102257.84;4969899;28;20035;-83
2022/06/17 10:53:39;;;;;;;4.65;2.42;;;;;;;24.33;27.25;102264.56;4972502;28;20057;-83
2022/06/17 10:56:10;;;;;;;5.10;2.60;;;;;;;25.53;25.27;102271.13;4974652;28;20038;-83
2022/06/17 10:58:36;;;;;;;4.28;2.78;;;;;;;24.02;27.10;102269.59;4966765;28;20043;-83
2022/06/17 11:01:05;;;;;;;5.13;2.72;;;;;;;24.74;26.31;102269.38;4959432;28;20551;-84
2022/06/17 11:03:32;;;;;;;6.07;2.65;;;;;;;24.22;26.81;102273.41;4954240;28;20035;-84
2022/06/17 11:05:57;;;;;;;5.05;2.83;;;;;;;25.44;26.30;102278.06;4984600;28;20026;-83
2022/06/17 11:08:28;;;;;;;5.20;2.50;;;;;;;25.07;26.36;102282.91;4954930;28;20503;-84
2022/06/17 11:10:57;;;;;;;7.53;3.30;;;;;;;24.44;26.02;102283.34;4969826;28;20058;-83
2022/06/17 11:13:24;;;;;;;5.07;2.50;;;;;;;24.47;26.66;102283.09;4984165;28;20128;-83
2022/06/17 11:15:55;;;;;;;4.38;2.72;;;;;;;24.96;26.96;102284.56;4973181;28;20027;-82
2022/06/17 11:18:30;;;;;;;7.15;2.55;;;;;;;24.78;26.62;102288.72;4988435;28;20086;-83
2022/06/17 11:20:59;;;;;;;6.60;3.28;;;;;;;24.56;26.54;102290.38;4972846;28;20038;-82
2022/06/17 11:23:32;;;;;;;4.68;3.05;;;;;;;24.55;27.41;102274.47;4956821;28;20520;-84
2022/06/17 11:26:19;;;;;;;4.50;2.53;;;;;;;23.72;27.51;102286.94;4970491;28;20039;-82
2022/06/17 11:28:52;;;;;;;5.57;3.33;;;;;;;23.46;28.31;102285.31;4969193;28;20121;-81
2022/06/17 11:31:23;;;;;;;5.35;3.30;;;;;;;23.39;28.72;102283.09;4969549;28;20535;-82
2022/06/17 11:33:52;;;;;;;5.25;2.70;;;;;;;24.12;28.37;102283.94;4967638;28;20050;-84
2022/06/17 11:36:30;;;;;;;3.00;2.70;;;;;;;23.10;29.45;102284.34;4972618;28;20510;-83
2022/06/17 11:38:57;;;;;;;5.03;2.42;;;;;;;22.94;29.33;102276.53;4970737;28;20051;-82
2022/06/17 11:41:32;;;;;;;4.80;2.65;;;;;;;23.31;28.84;102274.78;4955576;28;20074;-82
2022/06/17 11:44:20;;;;;;;3.58;2.80;;;;;;;23.26;28.85;102271.59;4970296;28;20093;-83
2022/06/17 11:46:50;;;;;;;3.38;2.85;;;;;;;23.40;28.64;102279.47;4949528;28;20097;-85
2022/06/17 11:49:19;;;;;;;4.43;3.13;;;;;;;23.40;27.96;102275.94;4972412;28;20051;-84
2022/06/17 11:52:09;;;;;;;24.17;7.72;;;;;;;24.17;27.91;102276.44;4973592;28;20081;-80
2022/06/17 11:54:39;;;;;;;5.18;2.95;;;;;;;24.81;26.86;102261.72;4964473;28;20397;-81
2022/06/17 11:57:17;;;;;;;4.93;2.53;;;;;;;25.05;27.27;102273.16;4971861;28;20030;-86
2022/06/17 11:59:45;;;;;;;5.30;2.45;;;;;;;25.30;27.25;102262.28;4974630;28;20027;-83
2022/06/17 12:02:11;;;;;;;4.07;2.38;;;;;;;24.34;27.78;102261.78;4987598;28;20031;-81